sensor_id;sensor_type;location;lat;lon;timestamp;pressure;altitude;pressure_sealevel;temperature;humidity
40794;BME280;26502;51.886;15.604;2022-12-29T00:04:55;100102.03;;;6.71;72.46
40794;BME280;26502;51.886;15.604;2022-12-29T00:10:04;100102.74;;;6.71;72.42
40794;BME280;26502;51.886;15.604;2022-12-29T00:15:12;100101.39;;;6.76;72.47
40794;BME280;26502;51.886;15.604;2022-12-29T00:20:37;100107.80;;;6.80;72.44
40794;BME280;26502;51.886;15.604;2022-12-29T00:26:05;100095.17;;;6.83;72.45
40794;BME280;26502;51.886;15.604;2022-12-29T00:31:34;100093.63;;;6.96;72.17
40794;BME280;26502;51.886;15.604;2022-12-29T00:36:59;100083.24;;;7.00;72.13
40794;BME280;26502;51.886;15.604;2022-12-29T00:42:09;100079.55;;;7.00;72.07
40794;BME280;26502;51.886;15.604;2022-12-29T00:47:33;100075.44;;;7.02;71.87
40794;BME280;26502;51.886;15.604;2022-12-29T00:52:40;100081.33;;;7.06;71.94
40794;BME280;26502;51.886;15.604;2022-12-29T00:57:48;100076.61;;;7.11;71.77
40794;BME280;26502;51.886;15.604;2022-12-29T01:02:55;100075.05;;;7.16;71.43
40794;BME280;26502;51.886;15.604;2022-12-29T01:08:03;100079.16;;;7.20;71.10
40794;BME280;26502;51.886;15.604;2022-12-29T01:13:11;100081.77;;;7.29;70.91
40794;BME280;26502;51.886;15.604;2022-12-29T01:18:18;100070.10;;;7.29;70.92
40794;BME280;26502;51.886;15.604;2022-12-29T01:23:26;100057.95;;;7.28;70.69
40794;BME280;26502;51.886;15.604;2022-12-29T01:28:34;100058.84;;;7.28;70.58
40794;BME280;26502;51.886;15.604;2022-12-29T01:33:43;100055.08;;;7.29;70.49
40794;BME280;26502;51.886;15.604;2022-12-29T01:38:51;100062.53;;;7.28;70.78
40794;BME280;26502;51.886;15.604;2022-12-29T01:44:01;100066.09;;;7.20;70.81
40794;BME280;26502;51.886;15.604;2022-12-29T01:49:13;100055.23;;;7.05;71.03
40794;BME280;26502;51.886;15.604;2022-12-29T01:54:25;100053.24;;;7.00;71.32
40794;BME280;26502;51.886;15.604;2022-12-29T01:59:36;100040.51;;;6.88;71.77
40794;BME280;26502;51.886;15.604;2022-12-29T02:04:46;100029.52;;;6.77;72.09
40794;BME280;26502;51.886;15.604;2022-12-29T02:09:57;100018.38;;;6.71;72.20
40794;BME280;26502;51.886;15.604;2022-12-29T02:15:08;100006.70;;;6.66;72.29
40794;BME280;26502;51.886;15.604;2022-12-29T02:20:45;100005.53;;;6.64;72.57
40794;BME280;26502;51.886;15.604;2022-12-29T02:26:19;100002.02;;;6.63;72.68
40794;BME280;26502;51.886;15.604;2022-12-29T02:31:39;100001.91;;;6.60;72.72
40794;BME280;26502;51.886;15.604;2022-12-29T02:37:00;99995.05;;;6.60;72.76
40794;BME280;26502;51.886;15.604;2022-12-29T02:42:17;99990.45;;;6.60;72.90
40794;BME280;26502;51.886;15.604;2022-12-29T02:47:34;99983.30;;;6.63;72.79
40794;BME280;26502;51.886;15.604;2022-12-29T02:52:46;99983.21;;;6.67;72.77
40794;BME280;26502;51.886;15.604;2022-12-29T02:58:15;99981.01;;;6.70;72.80
40794;BME280;26502;51.886;15.604;2022-12-29T03:03:30;99974.55;;;6.74;72.72
40794;BME280;26502;51.886;15.604;2022-12-29T03:08:48;99968.89;;;6.80;72.63
40794;BME280;26502;51.886;15.604;2022-12-29T03:14:05;99965.11;;;6.88;72.60
40794;BME280;26502;51.886;15.604;2022-12-29T03:19:37;99963.95;;;6.93;72.58
40794;BME280;26502;51.886;15.604;2022-12-29T03:24:50;99962.03;;;6.98;72.48
40794;BME280;26502;51.886;15.604;2022-12-29T03:30:03;99966.15;;;7.02;72.35
40794;BME280;26502;51.886;15.604;2022-12-29T03:35:14;99959.14;;;7.12;72.30
40794;BME280;26502;51.886;15.604;2022-12-29T03:40:25;99965.98;;;7.20;72.23
40794;BME280;26502;51.886;15.604;2022-12-29T03:45:34;99962.56;;;7.28;72.02
40794;BME280;26502;51.886;15.604;2022-12-29T03:50:41;99959.00;;;7.35;71.96
40794;BME280;26502;51.886;15.604;2022-12-29T03:55:49;99957.45;;;7.39;71.76
40794;BME280;26502;51.886;15.604;2022-12-29T04:00:57;99955.20;;;7.43;71.80
40794;BME280;26502;51.886;15.604;2022-12-29T04:06:05;99957.73;;;7.47;71.55
40794;BME280;26502;51.886;15.604;2022-12-29T04:11:19;99960.23;;;7.52;71.57
40794;BME280;26502;51.886;15.604;2022-12-29T04:16:27;99950.45;;;7.54;71.67
40794;BME280;26502;51.886;15.604;2022-12-29T04:21:34;99940.09;;;7.58;71.58
40794;BME280;26502;51.886;15.604;2022-12-29T04:26:41;99931.59;;;7.59;71.56
40794;BME280;26502;51.886;15.604;2022-12-29T04:32:08;99918.60;;;7.61;71.37
40794;BME280;26502;51.886;15.604;2022-12-29T04:37:20;99916.48;;;7.66;71.34
40794;BME280;26502;51.886;15.604;2022-12-29T04:42:29;99912.73;;;7.67;71.27
40794;BME280;26502;51.886;15.604;2022-12-29T04:47:37;99911.17;;;7.72;71.17
40794;BME280;26502;51.886;15.604;2022-12-29T04:53:05;99902.18;;;7.71;71.16
40794;BME280;26502;51.886;15.604;2022-12-29T04:58:13;99905.20;;;7.71;71.11
40794;BME280;26502;51.886;15.604;2022-12-29T05:03:20;99912.80;;;7.71;71.01
40794;BME280;26502;51.886;15.604;2022-12-29T05:08:29;99904.70;;;7.70;70.90
40794;BME280;26502;51.886;15.604;2022-12-29T05:13:38;99901.02;;;7.69;70.97
40794;BME280;26502;51.886;15.604;2022-12-29T05:18:47;99902.62;;;7.69;70.86
40794;BME280;26502;51.886;15.604;2022-12-29T05:23:55;99897.70;;;7.68;70.80
40794;BME280;26502;51.886;15.604;2022-12-29T05:29:04;99891.84;;;7.69;70.66
40794;BME280;26502;51.886;15.604;2022-12-29T05:34:13;99887.73;;;7.70;70.60
40794;BME280;26502;51.886;15.604;2022-12-29T05:39:20;99891.88;;;7.73;70.59
40794;BME280;26502;51.886;15.604;2022-12-29T05:44:34;99883.89;;;7.74;70.50
40794;BME280;26502;51.886;15.604;2022-12-29T05:50:07;99888.39;;;7.77;70.42
40794;BME280;26502;51.886;15.604;2022-12-29T05:55:33;99894.27;;;7.75;70.13
40794;BME280;26502;51.886;15.604;2022-12-29T06:00:42;99893.93;;;7.75;70.19
40794;BME280;26502;51.886;15.604;2022-12-29T06:05:51;99901.05;;;7.74;70.23
40794;BME280;26502;51.886;15.604;2022-12-29T06:10:59;99901.56;;;7.74;70.18
40794;BME280;26502;51.886;15.604;2022-12-29T06:16:07;99888.90;;;7.72;69.97
40794;BME280;26502;51.886;15.604;2022-12-29T06:21:17;99896.52;;;7.71;70.10
40794;BME280;26502;51.886;15.604;2022-12-29T06:26:25;99892.26;;;7.72;69.85
40794;BME280;26502;51.886;15.604;2022-12-29T06:31:33;99899.44;;;7.75;69.83
40794;BME280;26502;51.886;15.604;2022-12-29T06:36:41;99896.44;;;7.79;69.92
40794;BME280;26502;51.886;15.604;2022-12-29T06:41:49;99896.80;;;7.85;69.76
40794;BME280;26502;51.886;15.604;2022-12-29T06:47:15;99894.46;;;7.91;69.72
40794;BME280;26502;51.886;15.604;2022-12-29T06:52:22;99878.55;;;7.96;69.66
40794;BME280;26502;51.886;15.604;2022-12-29T06:57:30;99880.77;;;7.98;69.58
40794;BME280;26502;51.886;15.604;2022-12-29T07:02:38;99874.73;;;7.99;69.49
40794;BME280;26502;51.886;15.604;2022-12-29T07:07:46;99868.73;;;7.99;69.31
40794;BME280;26502;51.886;15.604;2022-12-29T07:12:54;99865.23;;;7.97;69.32
40794;BME280;26502;51.886;15.604;2022-12-29T07:18:02;99877.40;;;7.98;69.34
40794;BME280;26502;51.886;15.604;2022-12-29T07:23:11;99872.89;;;7.96;69.23
40794;BME280;26502;51.886;15.604;2022-12-29T07:28:19;99868.82;;;7.91;69.26
40794;BME280;26502;51.886;15.604;2022-12-29T07:33:27;99875.61;;;7.84;69.46
40794;BME280;26502;51.886;15.604;2022-12-29T07:38:35;99876.91;;;7.77;69.43
40794;BME280;26502;51.886;15.604;2022-12-29T07:43:43;99881.33;;;7.71;69.51
40794;BME280;26502;51.886;15.604;2022-12-29T07:49:14;99888.64;;;7.69;69.56
40794;BME280;26502;51.886;15.604;2022-12-29T07:54:22;99891.81;;;7.70;69.70
40794;BME280;26502;51.886;15.604;2022-12-29T07:59:30;99895.16;;;7.70;69.67
40794;BME280;26502;51.886;15.604;2022-12-29T08:04:38;99895.45;;;7.71;69.72
40794;BME280;26502;51.886;15.604;2022-12-29T08:09:48;99899.09;;;7.74;69.56
40794;BME280;26502;51.886;15.604;2022-12-29T08:14:55;99902.88;;;7.77;69.63
40794;BME280;26502;51.886;15.604;2022-12-29T08:20:03;99905.89;;;7.82;69.61
40794;BME280;26502;51.886;15.604;2022-12-29T08:25:11;99907.33;;;7.82;69.50
40794;BME280;26502;51.886;15.604;2022-12-29T08:30:20;99907.20;;;7.80;69.53
40794;BME280;26502;51.886;15.604;2022-12-29T08:35:28;99905.65;;;7.79;69.37
40794;BME280;26502;51.886;15.604;2022-12-29T08:40:35;99906.98;;;7.81;69.41
40794;BME280;26502;51.886;15.604;2022-12-29T08:45:43;99913.27;;;7.84;69.54
40794;BME280;26502;51.886;15.604;2022-12-29T08:50:51;99915.64;;;7.87;69.36
40794;BME280;26502;51.886;15.604;2022-12-29T08:56:01;99911.33;;;7.89;69.28
40794;BME280;26502;51.886;15.604;2022-12-29T09:01:11;99909.94;;;7.98;69.34
40794;BME280;26502;51.886;15.604;2022-12-29T09:06:19;99906.99;;;8.07;69.38
40794;BME280;26502;51.886;15.604;2022-12-29T09:11:27;99902.45;;;8.16;69.19
40794;BME280;26502;51.886;15.604;2022-12-29T09:16:35;99899.31;;;8.20;69.26
40794;BME280;26502;51.886;15.604;2022-12-29T09:21:43;99910.48;;;8.29;68.97
40794;BME280;26502;51.886;15.604;2022-12-29T09:26:50;99907.19;;;8.42;68.83
40794;BME280;26502;51.886;15.604;2022-12-29T09:31:58;99903.17;;;8.56;68.56
40794;BME280;26502;51.886;15.604;2022-12-29T09:37:06;99901.40;;;8.70;68.31
40794;BME280;26502;51.886;15.604;2022-12-29T09:42:19;99912.05;;;8.84;68.15
40794;BME280;26502;51.886;15.604;2022-12-29T09:47:31;99901.80;;;8.98;67.67
40794;BME280;26502;51.886;15.604;2022-12-29T09:52:42;99886.81;;;9.14;67.33
40794;BME280;26502;51.886;15.604;2022-12-29T09:57:56;99886.13;;;9.32;67.22
40794;BME280;26502;51.886;15.604;2022-12-29T10:03:10;99881.70;;;9.50;67.49
40794;BME280;26502;51.886;15.604;2022-12-29T10:08:37;99875.55;;;9.65;67.03
40794;BME280;26502;51.886;15.604;2022-12-29T10:13:58;99876.30;;;9.77;66.97
40794;BME280;26502;51.886;15.604;2022-12-29T10:19:34;99879.73;;;9.88;66.58
40794;BME280;26502;51.886;15.604;2022-12-29T10:24:49;99882.06;;;10.01;66.53
40794;BME280;26502;51.886;15.604;2022-12-29T10:30:00;99879.70;;;10.14;66.09
40794;BME280;26502;51.886;15.604;2022-12-29T10:35:14;99872.48;;;10.25;65.65
40794;BME280;26502;51.886;15.604;2022-12-29T10:40:27;99868.63;;;10.37;65.36
40794;BME280;26502;51.886;15.604;2022-12-29T10:45:37;99863.39;;;10.47;65.35
40794;BME280;26502;51.886;15.604;2022-12-29T10:50:49;99862.27;;;10.56;65.07
40794;BME280;26502;51.886;15.604;2022-12-29T10:55:59;99861.70;;;10.64;64.23
40794;BME280;26502;51.886;15.604;2022-12-29T11:01:09;99853.59;;;10.75;63.52
40794;BME280;26502;51.886;15.604;2022-12-29T11:06:24;99847.64;;;10.80;63.48
40794;BME280;26502;51.886;15.604;2022-12-29T11:11:35;99848.02;;;10.91;63.47
40794;BME280;26502;51.886;15.604;2022-12-29T11:16:44;99839.04;;;11.01;63.06
40794;BME280;26502;51.886;15.604;2022-12-29T11:21:52;99827.22;;;11.14;62.53
40794;BME280;26502;51.886;15.604;2022-12-29T11:27:13;99819.88;;;11.34;62.07
40794;BME280;26502;51.886;15.604;2022-12-29T11:32:26;99811.51;;;11.52;61.96
40794;BME280;26502;51.886;15.604;2022-12-29T11:37:39;99815.33;;;11.64;61.91
40794;BME280;26502;51.886;15.604;2022-12-29T11:42:50;99810.66;;;11.65;61.37
40794;BME280;26502;51.886;15.604;2022-12-29T11:48:01;99809.83;;;11.71;61.39
40794;BME280;26502;51.886;15.604;2022-12-29T11:53:22;99810.92;;;11.74;61.10
40794;BME280;26502;51.886;15.604;2022-12-29T11:58:36;99807.25;;;11.73;61.44
40794;BME280;26502;51.886;15.604;2022-12-29T12:03:55;99813.75;;;11.71;61.57
40794;BME280;26502;51.886;15.604;2022-12-29T12:09:08;99806.22;;;11.90;61.00
40794;BME280;26502;51.886;15.604;2022-12-29T12:14:23;99796.36;;;12.05;61.36
40794;BME280;26502;51.886;15.604;2022-12-29T12:20:00;99783.77;;;12.28;60.55
40794;BME280;26502;51.886;15.604;2022-12-29T12:25:14;99784.43;;;12.42;60.00
40794;BME280;26502;51.886;15.604;2022-12-29T12:30:26;99785.27;;;12.30;59.45
40794;BME280;26502;51.886;15.604;2022-12-29T12:35:47;99783.34;;;12.05;59.34
40794;BME280;26502;51.886;15.604;2022-12-29T12:41:08;99788.33;;;11.95;59.33
40794;BME280;26502;51.886;15.604;2022-12-29T12:46:52;99782.02;;;12.07;59.51
40794;BME280;26502;51.886;15.604;2022-12-29T12:52:11;99780.77;;;11.76;59.64
40794;BME280;26502;51.886;15.604;2022-12-29T12:57:31;99784.55;;;11.57;59.90
40794;BME280;26502;51.886;15.604;2022-12-29T13:02:56;99778.67;;;11.44;59.81
40794;BME280;26502;51.886;15.604;2022-12-29T13:08:23;99779.94;;;11.40;59.89
40794;BME280;26502;51.886;15.604;2022-12-29T13:13:45;99781.45;;;11.38;60.25
40794;BME280;26502;51.886;15.604;2022-12-29T13:19:00;99777.45;;;11.36;60.38
40794;BME280;26502;51.886;15.604;2022-12-29T13:24:15;99772.11;;;11.68;60.52
40794;BME280;26502;51.886;15.604;2022-12-29T13:29:36;99769.85;;;11.81;60.01
40794;BME280;26502;51.886;15.604;2022-12-29T13:34:56;99763.88;;;11.69;60.09
40794;BME280;26502;51.886;15.604;2022-12-29T13:40:10;99772.14;;;11.57;60.14
40794;BME280;26502;51.886;15.604;2022-12-29T13:45:22;99770.05;;;11.39;60.18
40794;BME280;26502;51.886;15.604;2022-12-29T13:50:31;99776.77;;;11.28;60.56
40794;BME280;26502;51.886;15.604;2022-12-29T13:55:48;99781.39;;;11.14;60.24
40794;BME280;26502;51.886;15.604;2022-12-29T14:01:00;99787.73;;;11.00;60.44
40794;BME280;26502;51.886;15.604;2022-12-29T14:06:19;99798.77;;;10.89;60.54
40794;BME280;26502;51.886;15.604;2022-12-29T14:11:34;99799.52;;;10.76;60.63
40794;BME280;26502;51.886;15.604;2022-12-29T14:16:43;99799.95;;;10.67;60.78
40794;BME280;26502;51.886;15.604;2022-12-29T14:21:56;99802.15;;;10.62;60.97
40794;BME280;26502;51.886;15.604;2022-12-29T14:27:51;99795.80;;;10.57;60.89
40794;BME280;26502;51.886;15.604;2022-12-29T14:33:14;99790.30;;;10.50;61.03
40794;BME280;26502;51.886;15.604;2022-12-29T14:38:24;99799.15;;;10.43;61.30
40794;BME280;26502;51.886;15.604;2022-12-29T14:43:32;99803.70;;;10.36;61.14
40794;BME280;26502;51.886;15.604;2022-12-29T14:48:43;99803.75;;;10.26;61.32
40794;BME280;26502;51.886;15.604;2022-12-29T14:53:52;99807.69;;;10.18;61.63
40794;BME280;26502;51.886;15.604;2022-12-29T14:59:03;99805.73;;;10.10;61.55
40794;BME280;26502;51.886;15.604;2022-12-29T15:04:19;99806.77;;;10.03;61.77
40794;BME280;26502;51.886;15.604;2022-12-29T15:09:31;99813.91;;;9.93;61.81
40794;BME280;26502;51.886;15.604;2022-12-29T15:14:51;99815.66;;;9.85;62.06
40794;BME280;26502;51.886;15.604;2022-12-29T15:20:13;99813.77;;;9.80;62.27
40794;BME280;26502;51.886;15.604;2022-12-29T15:25:23;99816.61;;;9.71;62.51
40794;BME280;26502;51.886;15.604;2022-12-29T15:30:31;99816.17;;;9.69;62.48
40794;BME280;26502;51.886;15.604;2022-12-29T15:35:39;99815.25;;;9.62;62.70
40794;BME280;26502;51.886;15.604;2022-12-29T15:40:48;99823.84;;;9.55;62.91
40794;BME280;26502;51.886;15.604;2022-12-29T15:45:59;99828.03;;;9.53;63.01
40794;BME280;26502;51.886;15.604;2022-12-29T15:51:25;99829.76;;;9.54;63.14
40794;BME280;26502;51.886;15.604;2022-12-29T15:56:36;99828.40;;;9.48;63.18
40794;BME280;26502;51.886;15.604;2022-12-29T16:01:43;99834.21;;;9.49;63.32
40794;BME280;26502;51.886;15.604;2022-12-29T16:07:00;99844.45;;;9.46;63.39
40794;BME280;26502;51.886;15.604;2022-12-29T16:12:18;99851.79;;;9.44;63.22
40794;BME280;26502;51.886;15.604;2022-12-29T16:17:32;99850.65;;;9.42;63.65
40794;BME280;26502;51.886;15.604;2022-12-29T16:22:41;99848.17;;;9.41;63.53
40794;BME280;26502;51.886;15.604;2022-12-29T16:27:54;99860.35;;;9.38;63.56
40794;BME280;26502;51.886;15.604;2022-12-29T16:33:03;99872.12;;;9.36;63.55
40794;BME280;26502;51.886;15.604;2022-12-29T16:38:12;99881.78;;;9.39;63.62
40794;BME280;26502;51.886;15.604;2022-12-29T16:43:26;99881.08;;;9.34;63.79
40794;BME280;26502;51.886;15.604;2022-12-29T16:48:36;99881.81;;;9.33;63.73
40794;BME280;26502;51.886;15.604;2022-12-29T16:53:54;99883.64;;;9.32;64.02
40794;BME280;26502;51.886;15.604;2022-12-29T16:59:05;99890.59;;;9.35;63.96
40794;BME280;26502;51.886;15.604;2022-12-29T17:04:15;99898.70;;;9.41;63.93
40794;BME280;26502;51.886;15.604;2022-12-29T17:09:24;99900.41;;;9.42;63.97
40794;BME280;26502;51.886;15.604;2022-12-29T17:14:44;99904.00;;;9.41;64.06
40794;BME280;26502;51.886;15.604;2022-12-29T17:19:54;99906.45;;;9.42;63.82
40794;BME280;26502;51.886;15.604;2022-12-29T17:25:05;99909.94;;;9.43;63.78
40794;BME280;26502;51.886;15.604;2022-12-29T17:30:18;99909.41;;;9.43;63.86
40794;BME280;26502;51.886;15.604;2022-12-29T17:35:26;99909.16;;;9.41;63.81
40794;BME280;26502;51.886;15.604;2022-12-29T17:40:35;99914.91;;;9.39;63.87
40794;BME280;26502;51.886;15.604;2022-12-29T17:45:44;99918.71;;;9.37;63.69
40794;BME280;26502;51.886;15.604;2022-12-29T17:50:54;99920.84;;;9.37;64.02
40794;BME280;26502;51.886;15.604;2022-12-29T17:56:04;99930.90;;;9.33;63.92
40794;BME280;26502;51.886;15.604;2022-12-29T18:01:12;99937.89;;;9.27;63.85
40794;BME280;26502;51.886;15.604;2022-12-29T18:06:20;99947.45;;;9.18;64.02
40794;BME280;26502;51.886;15.604;2022-12-29T18:11:29;99946.42;;;9.12;64.20
40794;BME280;26502;51.886;15.604;2022-12-29T18:16:36;99946.92;;;9.03;64.19
40794;BME280;26502;51.886;15.604;2022-12-29T18:21:45;99952.88;;;9.01;64.41
40794;BME280;26502;51.886;15.604;2022-12-29T18:26:53;99950.81;;;8.99;64.52
40794;BME280;26502;51.886;15.604;2022-12-29T18:32:01;99949.86;;;8.96;64.66
40794;BME280;26502;51.886;15.604;2022-12-29T18:37:09;99954.32;;;8.90;64.60
40794;BME280;26502;51.886;15.604;2022-12-29T18:42:18;99959.84;;;8.80;64.84
40794;BME280;26502;51.886;15.604;2022-12-29T18:47:27;99963.63;;;8.73;65.00
40794;BME280;26502;51.886;15.604;2022-12-29T18:52:36;99966.44;;;8.64;65.04
40794;BME280;26502;51.886;15.604;2022-12-29T18:57:44;99974.52;;;8.56;65.03
40794;BME280;26502;51.886;15.604;2022-12-29T19:02:52;99980.36;;;8.50;65.19
40794;BME280;26502;51.886;15.604;2022-12-29T19:08:01;99988.23;;;8.42;65.34
40794;BME280;26502;51.886;15.604;2022-12-29T19:13:16;99984.25;;;8.29;65.39
40794;BME280;26502;51.886;15.604;2022-12-29T19:18:27;99983.23;;;8.17;65.82
40794;BME280;26502;51.886;15.604;2022-12-29T19:23:35;99982.02;;;8.00;65.57
40794;BME280;26502;51.886;15.604;2022-12-29T19:28:43;99984.33;;;7.84;65.81
40794;BME280;26502;51.886;15.604;2022-12-29T19:33:51;99996.64;;;7.74;65.87
40794;BME280;26502;51.886;15.604;2022-12-29T19:38:59;99999.44;;;7.64;66.01
40794;BME280;26502;51.886;15.604;2022-12-29T19:44:07;100000.16;;;7.58;66.12
40794;BME280;26502;51.886;15.604;2022-12-29T19:49:14;100000.73;;;7.56;66.17
40794;BME280;26502;51.886;15.604;2022-12-29T19:54:23;100012.25;;;7.49;66.12
40794;BME280;26502;51.886;15.604;2022-12-29T19:59:32;100012.27;;;7.31;66.42
40794;BME280;26502;51.886;15.604;2022-12-29T20:04:40;100017.54;;;7.08;66.40
40794;BME280;26502;51.886;15.604;2022-12-29T20:09:48;100019.09;;;6.97;66.42
40794;BME280;26502;51.886;15.604;2022-12-29T20:14:56;100028.68;;;6.88;66.71
40794;BME280;26502;51.886;15.604;2022-12-29T20:20:04;100033.96;;;6.82;66.81
40794;BME280;26502;51.886;15.604;2022-12-29T20:25:13;100036.50;;;6.80;66.93
40794;BME280;26502;51.886;15.604;2022-12-29T20:30:23;100035.86;;;6.77;67.27
40794;BME280;26502;51.886;15.604;2022-12-29T20:35:31;100038.70;;;6.77;67.49
40794;BME280;26502;51.886;15.604;2022-12-29T20:40:38;100037.63;;;6.78;67.77
40794;BME280;26502;51.886;15.604;2022-12-29T20:45:48;100041.34;;;6.77;68.05
40794;BME280;26502;51.886;15.604;2022-12-29T20:50:56;100042.92;;;6.77;68.14
40794;BME280;26502;51.886;15.604;2022-12-29T20:56:07;100046.38;;;6.80;68.25
40794;BME280;26502;51.886;15.604;2022-12-29T21:01:19;100048.18;;;6.79;68.45
40794;BME280;26502;51.886;15.604;2022-12-29T21:06:29;100045.25;;;6.76;68.53
40794;BME280;26502;51.886;15.604;2022-12-29T21:11:37;100036.91;;;6.78;68.64
40794;BME280;26502;51.886;15.604;2022-12-29T21:16:45;100034.90;;;6.74;68.76
40794;BME280;26502;51.886;15.604;2022-12-29T21:21:53;100036.39;;;6.64;68.88
40794;BME280;26502;51.886;15.604;2022-12-29T21:27:00;100038.05;;;6.61;68.86
40794;BME280;26502;51.886;15.604;2022-12-29T21:32:08;100037.65;;;6.56;68.84
40794;BME280;26502;51.886;15.604;2022-12-29T21:37:15;100037.96;;;6.58;69.09
40794;BME280;26502;51.886;15.604;2022-12-29T21:42:23;100031.65;;;6.50;69.21
40794;BME280;26502;51.886;15.604;2022-12-29T21:47:35;100038.89;;;6.43;69.50
40794;BME280;26502;51.886;15.604;2022-12-29T21:52:59;100042.81;;;6.41;69.68
40794;BME280;26502;51.886;15.604;2022-12-29T21:58:07;100048.53;;;6.38;69.80
40794;BME280;26502;51.886;15.604;2022-12-29T22:03:31;100049.28;;;6.29;69.72
40794;BME280;26502;51.886;15.604;2022-12-29T22:08:56;100047.52;;;6.22;69.77
40794;BME280;26502;51.886;15.604;2022-12-29T22:14:23;100060.00;;;6.16;69.67
40794;BME280;26502;51.886;15.604;2022-12-29T22:19:32;100064.13;;;6.06;69.75
40794;BME280;26502;51.886;15.604;2022-12-29T22:24:39;100069.26;;;5.98;69.69
40794;BME280;26502;51.886;15.604;2022-12-29T22:29:47;100084.02;;;5.90;69.60
40794;BME280;26502;51.886;15.604;2022-12-29T22:34:55;100086.45;;;5.84;69.54
40794;BME280;26502;51.886;15.604;2022-12-29T22:40:03;100083.67;;;5.66;69.73
40794;BME280;26502;51.886;15.604;2022-12-29T22:45:11;100082.57;;;5.52;69.92
40794;BME280;26502;51.886;15.604;2022-12-29T22:50:19;100082.36;;;5.37;69.87
40794;BME280;26502;51.886;15.604;2022-12-29T22:55:27;100093.58;;;5.30;70.02
40794;BME280;26502;51.886;15.604;2022-12-29T23:00:34;100098.65;;;5.24;70.28
40794;BME280;26502;51.886;15.604;2022-12-29T23:05:42;100095.62;;;5.25;70.19
40794;BME280;26502;51.886;15.604;2022-12-29T23:10:49;100090.62;;;5.29;70.29
40794;BME280;26502;51.886;15.604;2022-12-29T23:15:57;100092.37;;;5.38;70.27
40794;BME280;26502;51.886;15.604;2022-12-29T23:21:05;100094.95;;;5.41;70.51
40794;BME280;26502;51.886;15.604;2022-12-29T23:26:12;100093.98;;;5.45;70.86
40794;BME280;26502;51.886;15.604;2022-12-29T23:31:20;100101.77;;;5.52;70.74
40794;BME280;26502;51.886;15.604;2022-12-29T23:36:29;100099.49;;;5.51;70.94
40794;BME280;26502;51.886;15.604;2022-12-29T23:41:37;100097.14;;;5.55;71.04
40794;BME280;26502;51.886;15.604;2022-12-29T23:46:45;100104.38;;;5.54;70.94
40794;BME280;26502;51.886;15.604;2022-12-29T23:51:52;100108.29;;;5.51;70.80
40794;BME280;26502;51.886;15.604;2022-12-29T23:56:59;100106.64;;;5.46;70.96
